sensor_id;sensor_type;location;lat;lon;timestamp;pressure;altitude;pressure_sealevel;temperature;humidity
56400;BME280;42298;53.638;9.876;2022-11-25T00:00:47;101116.84;;;7.39;70.16
56400;BME280;42298;53.638;9.876;2022-11-25T00:03:12;101118.47;;;7.40;69.87
56400;BME280;42298;53.638;9.876;2022-11-25T00:05:37;101093.59;;;7.26;70.79
56400;BME280;42298;53.638;9.876;2022-11-25T00:08:03;101094.94;;;7.29;71.12
56400;BME280;42298;53.638;9.876;2022-11-25T00:10:28;101123.41;;;7.43;71.11
56400;BME280;42298;53.638;9.876;2022-11-25T00:12:53;101121.22;;;7.45;71.34
56400;BME280;42298;53.638;9.876;2022-11-25T00:15:19;101105.63;;;7.30;70.66
56400;BME280;42298;53.638;9.876;2022-11-25T00:17:44;101119.88;;;7.32;71.40
56400;BME280;42298;53.638;9.876;2022-11-25T00:20:10;101118.25;;;7.31;71.70
56400;BME280;42298;53.638;9.876;2022-11-25T00:22:35;101109.47;;;7.29;71.81
56400;BME280;42298;53.638;9.876;2022-11-25T00:25:00;101107.28;;;7.31;71.52
56400;BME280;42298;53.638;9.876;2022-11-25T00:27:25;101082.13;;;7.19;71.58
56400;BME280;42298;53.638;9.876;2022-11-25T00:29:51;101108.09;;;7.32;71.60
56400;BME280;42298;53.638;9.876;2022-11-25T00:32:16;101102.88;;;7.35;72.53
56400;BME280;42298;53.638;9.876;2022-11-25T00:34:41;101103.16;;;7.34;72.84
56400;BME280;42298;53.638;9.876;2022-11-25T00:37:07;101111.38;;;7.39;73.28
56400;BME280;42298;53.638;9.876;2022-11-25T00:39:32;101092.75;;;7.31;73.45
56400;BME280;42298;53.638;9.876;2022-11-25T00:41:57;101112.44;;;7.48;73.49
56400;BME280;42298;53.638;9.876;2022-11-25T00:44:41;101113.22;;;7.53;74.00
56400;BME280;42298;53.638;9.876;2022-11-25T00:47:18;101113.44;;;7.62;73.80
56400;BME280;42298;53.638;9.876;2022-11-25T00:49:49;101104.44;;;7.61;73.75
56400;BME280;42298;53.638;9.876;2022-11-25T00:52:21;101098.13;;;7.56;74.54
56400;BME280;42298;53.638;9.876;2022-11-25T00:54:47;101113.22;;;7.53;74.25
56400;BME280;42298;53.638;9.876;2022-11-25T00:57:15;101099.81;;;7.47;74.17
56400;BME280;42298;53.638;9.876;2022-11-25T00:59:41;101063.97;;;7.38;74.52
56400;BME280;42298;53.638;9.876;2022-11-25T01:02:07;101085.75;;;7.63;73.76
56400;BME280;42298;53.638;9.876;2022-11-25T01:04:32;101104.88;;;7.78;74.60
56400;BME280;42298;53.638;9.876;2022-11-25T01:06:58;101096.94;;;7.77;73.78
56400;BME280;42298;53.638;9.876;2022-11-25T01:09:25;101090.31;;;7.83;74.08
56400;BME280;42298;53.638;9.876;2022-11-25T01:11:51;101092.53;;;7.81;74.36
56400;BME280;42298;53.638;9.876;2022-11-25T01:14:17;101067.41;;;7.64;74.13
56400;BME280;42298;53.638;9.876;2022-11-25T01:16:42;101078.63;;;7.67;74.56
56400;BME280;42298;53.638;9.876;2022-11-25T01:19:09;101086.00;;;7.72;74.86
56400;BME280;42298;53.638;9.876;2022-11-25T01:21:35;101073.38;;;7.71;74.26
56400;BME280;42298;53.638;9.876;2022-11-25T01:24:02;101071.16;;;7.78;74.68
56400;BME280;42298;53.638;9.876;2022-11-25T01:26:28;101087.56;;;7.88;74.40
56400;BME280;42298;53.638;9.876;2022-11-25T01:28:58;101088.59;;;7.97;74.46
56400;BME280;42298;53.638;9.876;2022-11-25T01:31:27;101090.22;;;7.98;73.83
56400;BME280;42298;53.638;9.876;2022-11-25T01:33:57;101092.38;;;8.06;73.86
56400;BME280;42298;53.638;9.876;2022-11-25T01:36:24;101092.13;;;8.03;74.13
56400;BME280;42298;53.638;9.876;2022-11-25T01:38:55;101084.16;;;8.01;74.52
56400;BME280;42298;53.638;9.876;2022-11-25T01:41:21;101080.34;;;8.02;74.55
56400;BME280;42298;53.638;9.876;2022-11-25T01:49:29;101079.91;;;7.85;74.90
56400;BME280;42298;53.638;9.876;2022-11-25T01:54:54;101069.19;;;7.89;74.85
56400;BME280;42298;53.638;9.876;2022-11-25T01:57:40;101079.59;;;7.92;74.42
56400;BME280;42298;53.638;9.876;2022-11-25T02:00:09;101073.34;;;7.81;74.70
56400;BME280;42298;53.638;9.876;2022-11-25T02:02:35;101088.09;;;7.90;74.75
56400;BME280;42298;53.638;9.876;2022-11-25T02:05:07;101093.78;;;8.04;74.11
56400;BME280;42298;53.638;9.876;2022-11-25T02:07:38;101078.97;;;8.00;74.75
56400;BME280;42298;53.638;9.876;2022-11-25T02:10:10;101048.06;;;7.89;73.48
56400;BME280;42298;53.638;9.876;2022-11-25T02:12:39;101063.88;;;8.02;74.51
56400;BME280;42298;53.638;9.876;2022-11-25T02:15:06;101084.34;;;8.15;73.96
56400;BME280;42298;53.638;9.876;2022-11-25T02:17:31;101084.34;;;8.15;74.12
56400;BME280;42298;53.638;9.876;2022-11-25T02:20:03;101078.88;;;8.15;73.50
56400;BME280;42298;53.638;9.876;2022-11-25T02:22:43;101090.06;;;8.23;73.15
56400;BME280;42298;53.638;9.876;2022-11-25T02:25:12;101075.91;;;8.06;73.90
56400;BME280;42298;53.638;9.876;2022-11-25T02:27:38;101066.66;;;7.97;73.77
56400;BME280;42298;53.638;9.876;2022-11-25T02:30:05;101066.09;;;7.95;74.03
56400;BME280;42298;53.638;9.876;2022-11-25T02:32:30;101058.72;;;7.96;74.06
56400;BME280;42298;53.638;9.876;2022-11-25T02:34:55;101060.03;;;8.03;73.76
56400;BME280;42298;53.638;9.876;2022-11-25T02:37:22;101084.84;;;8.22;73.86
56400;BME280;42298;53.638;9.876;2022-11-25T02:39:49;101099.66;;;8.21;73.66
56400;BME280;42298;53.638;9.876;2022-11-25T02:42:16;101087.91;;;8.20;73.24
56400;BME280;42298;53.638;9.876;2022-11-25T02:44:44;101095.56;;;8.23;73.33
56400;BME280;42298;53.638;9.876;2022-11-25T02:47:09;101086.53;;;8.18;72.91
56400;BME280;42298;53.638;9.876;2022-11-25T02:49:34;101085.19;;;8.15;73.17
56400;BME280;42298;53.638;9.876;2022-11-25T02:52:00;101082.81;;;8.04;73.40
56400;BME280;42298;53.638;9.876;2022-11-25T02:54:25;101071.31;;;7.97;73.58
56400;BME280;42298;53.638;9.876;2022-11-25T02:56:50;101055.81;;;7.77;73.53
56400;BME280;42298;53.638;9.876;2022-11-25T02:59:16;101071.38;;;7.87;73.34
56400;BME280;42298;53.638;9.876;2022-11-25T03:01:41;101063.44;;;7.85;73.32
56400;BME280;42298;53.638;9.876;2022-11-25T03:04:06;101093.53;;;7.95;73.33
56400;BME280;42298;53.638;9.876;2022-11-25T03:06:32;101071.94;;;7.83;73.82
56400;BME280;42298;53.638;9.876;2022-11-25T03:08:57;101062.41;;;7.76;72.75
56400;BME280;42298;53.638;9.876;2022-11-25T03:11:23;101068.72;;;7.76;73.74
56400;BME280;42298;53.638;9.876;2022-11-25T03:14:08;101072.78;;;7.79;73.27
56400;BME280;42298;53.638;9.876;2022-11-25T03:16:34;101059.41;;;7.72;73.16
56400;BME280;42298;53.638;9.876;2022-11-25T03:18:59;101079.06;;;7.84;73.74
56400;BME280;42298;53.638;9.876;2022-11-25T03:21:24;101066.19;;;7.80;73.22
56400;BME280;42298;53.638;9.876;2022-11-25T03:23:50;101061.28;;;7.77;73.14
56400;BME280;42298;53.638;9.876;2022-11-25T03:26:15;101078.50;;;7.88;72.96
56400;BME280;42298;53.638;9.876;2022-11-25T03:28:40;101069.50;;;7.77;72.79
56400;BME280;42298;53.638;9.876;2022-11-25T03:31:09;101077.13;;;7.90;73.10
56400;BME280;42298;53.638;9.876;2022-11-25T03:33:34;101076.59;;;7.83;73.75
56400;BME280;42298;53.638;9.876;2022-11-25T03:36:00;101070.88;;;7.79;72.62
56400;BME280;42298;53.638;9.876;2022-11-25T03:38:25;101073.09;;;7.72;73.58
56400;BME280;42298;53.638;9.876;2022-11-25T03:40:50;101091.16;;;7.78;72.60
56400;BME280;42298;53.638;9.876;2022-11-25T03:43:17;101091.69;;;7.86;73.05
56400;BME280;42298;53.638;9.876;2022-11-25T03:45:42;101084.03;;;7.82;72.98
56400;BME280;42298;53.638;9.876;2022-11-25T03:48:08;101081.00;;;7.84;73.12
56400;BME280;42298;53.638;9.876;2022-11-25T03:50:33;101071.75;;;7.70;73.16
56400;BME280;42298;53.638;9.876;2022-11-25T03:52:58;101084.63;;;7.74;72.81
56400;BME280;42298;53.638;9.876;2022-11-25T03:55:24;101082.41;;;7.76;72.94
56400;BME280;42298;53.638;9.876;2022-11-25T03:57:49;101069.03;;;7.65;72.44
56400;BME280;42298;53.638;9.876;2022-11-25T04:00:14;101054.53;;;7.59;72.73
56400;BME280;42298;53.638;9.876;2022-11-25T04:02:40;101076.69;;;7.68;72.91
56400;BME280;42298;53.638;9.876;2022-11-25T04:05:05;101101.28;;;7.83;72.32
56400;BME280;42298;53.638;9.876;2022-11-25T04:07:31;101094.44;;;7.80;72.91
56400;BME280;42298;53.638;9.876;2022-11-25T04:09:56;101086.00;;;7.72;73.06
56400;BME280;42298;53.638;9.876;2022-11-25T04:12:21;101089.59;;;7.67;73.34
56400;BME280;42298;53.638;9.876;2022-11-25T04:15:06;101087.38;;;7.69;73.63
56400;BME280;42298;53.638;9.876;2022-11-25T04:17:31;101069.03;;;7.65;73.23
56400;BME280;42298;53.638;9.876;2022-11-25T04:19:56;101066.34;;;7.60;73.09
56400;BME280;42298;53.638;9.876;2022-11-25T04:22:22;101072.59;;;7.65;73.70
56400;BME280;42298;53.638;9.876;2022-11-25T04:24:47;101058.41;;;7.53;73.45
56400;BME280;42298;53.638;9.876;2022-11-25T04:27:12;101057.00;;;7.61;74.41
56400;BME280;42298;53.638;9.876;2022-11-25T04:29:38;101055.38;;;7.60;73.26
56400;BME280;42298;53.638;9.876;2022-11-25T04:32:03;101073.38;;;7.71;73.77
56400;BME280;42298;53.638;9.876;2022-11-25T04:34:28;101057.00;;;7.61;74.19
56400;BME280;42298;53.638;9.876;2022-11-25T04:36:54;101047.16;;;7.55;74.00
56400;BME280;42298;53.638;9.876;2022-11-25T04:39:19;101063.03;;;7.58;74.03
56400;BME280;42298;53.638;9.876;2022-11-25T04:41:44;101069.06;;;7.60;73.77
56400;BME280;42298;53.638;9.876;2022-11-25T04:44:11;101052.94;;;7.53;73.87
56400;BME280;42298;53.638;9.876;2022-11-25T04:46:40;101078.03;;;7.75;74.38
56400;BME280;42298;53.638;9.876;2022-11-25T04:49:07;101076.41;;;7.69;73.97
56400;BME280;42298;53.638;9.876;2022-11-25T04:51:32;101080.56;;;7.62;74.46
56400;BME280;42298;53.638;9.876;2022-11-25T04:53:58;101075.06;;;7.62;74.31
56400;BME280;42298;53.638;9.876;2022-11-25T04:56:23;101082.16;;;7.73;74.16
56400;BME280;42298;53.638;9.876;2022-11-25T04:58:49;101084.06;;;7.72;73.84
56400;BME280;42298;53.638;9.876;2022-11-25T05:01:33;101071.22;;;7.68;73.42
56400;BME280;42298;53.638;9.876;2022-11-25T05:03:58;101078.84;;;7.76;73.35
56400;BME280;42298;53.638;9.876;2022-11-25T05:06:24;101059.69;;;7.71;73.63
56400;BME280;42298;53.638;9.876;2022-11-25T05:08:50;101068.72;;;7.71;73.55
56400;BME280;42298;53.638;9.876;2022-11-25T05:11:16;101073.09;;;7.72;73.73
56400;BME280;42298;53.638;9.876;2022-11-25T05:13:41;101049.63;;;7.56;74.05
56400;BME280;42298;53.638;9.876;2022-11-25T05:16:07;101053.19;;;7.57;74.13
56400;BME280;42298;53.638;9.876;2022-11-25T05:18:32;101042.25;;;7.52;73.69
56400;BME280;42298;53.638;9.876;2022-11-25T05:21:01;101049.94;;;7.50;74.21
56400;BME280;42298;53.638;9.876;2022-11-25T05:23:28;101042.53;;;7.45;74.42
56400;BME280;42298;53.638;9.876;2022-11-25T05:26:01;101060.81;;;7.65;74.41
56400;BME280;42298;53.638;9.876;2022-11-25T05:28:27;101065.84;;;7.48;74.14
56400;BME280;42298;53.638;9.876;2022-11-25T05:30:53;101057.91;;;7.46;74.40
56400;BME280;42298;53.638;9.876;2022-11-25T05:33:18;101081.09;;;7.64;74.10
56400;BME280;42298;53.638;9.876;2022-11-25T05:35:44;101081.38;;;7.62;74.29
56400;BME280;42298;53.638;9.876;2022-11-25T05:38:09;101079.16;;;7.69;74.25
56400;BME280;42298;53.638;9.876;2022-11-25T05:40:34;101076.16;;;7.66;73.94
56400;BME280;42298;53.638;9.876;2022-11-25T05:43:00;101081.28;;;7.82;73.65
56400;BME280;42298;53.638;9.876;2022-11-25T05:45:26;101074.38;;;7.90;73.55
56400;BME280;42298;53.638;9.876;2022-11-25T05:47:51;101080.38;;;7.92;73.82
56400;BME280;42298;53.638;9.876;2022-11-25T05:50:16;101052.53;;;7.75;73.64
56400;BME280;42298;53.638;9.876;2022-11-25T05:52:42;101067.28;;;7.84;74.04
56400;BME280;42298;53.638;9.876;2022-11-25T05:55:07;101074.94;;;7.87;73.85
56400;BME280;42298;53.638;9.876;2022-11-25T05:57:32;101092.44;;;7.96;74.12
56400;BME280;42298;53.638;9.876;2022-11-25T05:59:58;101098.91;;;8.15;73.52
56400;BME280;42298;53.638;9.876;2022-11-25T06:02:23;101080.81;;;8.14;73.32
56400;BME280;42298;53.638;9.876;2022-11-25T06:04:48;101064.41;;;8.04;72.70
56400;BME280;42298;53.638;9.876;2022-11-25T06:07:14;101084.84;;;8.22;73.27
56400;BME280;42298;53.638;9.876;2022-11-25T06:09:39;101047.75;;;7.91;72.57
56400;BME280;42298;53.638;9.876;2022-11-25T06:12:05;101083.78;;;8.18;72.86
56400;BME280;42298;53.638;9.876;2022-11-25T06:14:30;101084.06;;;8.16;73.07
56400;BME280;42298;53.638;9.876;2022-11-25T06:16:55;101032.44;;;7.90;73.12
56400;BME280;42298;53.638;9.876;2022-11-25T06:19:21;101056.44;;;8.08;73.20
56400;BME280;42298;53.638;9.876;2022-11-25T06:21:46;101043.38;;;7.95;72.66
56400;BME280;42298;53.638;9.876;2022-11-25T06:24:12;101079.97;;;8.14;73.00
56400;BME280;42298;53.638;9.876;2022-11-25T06:26:37;101056.78;;;7.96;72.43
56400;BME280;42298;53.638;9.876;2022-11-25T06:29:02;101053.22;;;7.96;72.55
56400;BME280;42298;53.638;9.876;2022-11-25T06:31:29;101056.75;;;8.01;72.72
56400;BME280;42298;53.638;9.876;2022-11-25T06:33:54;101055.41;;;7.94;72.75
56400;BME280;42298;53.638;9.876;2022-11-25T06:36:21;101084.06;;;8.16;72.45
56400;BME280;42298;53.638;9.876;2022-11-25T06:38:51;101090.06;;;8.23;72.52
56400;BME280;42298;53.638;9.876;2022-11-25T06:41:17;101082.88;;;8.32;71.73
56400;BME280;42298;53.638;9.876;2022-11-25T06:43:43;101085.03;;;8.35;72.60
56400;BME280;42298;53.638;9.876;2022-11-25T06:46:10;101082.81;;;8.42;72.18
56400;BME280;42298;53.638;9.876;2022-11-25T06:48:36;101064.28;;;8.24;71.59
56400;BME280;42298;53.638;9.876;2022-11-25T06:51:04;101086.34;;;8.43;71.78
56400;BME280;42298;53.638;9.876;2022-11-25T06:53:30;101081.81;;;8.28;71.75
56400;BME280;42298;53.638;9.876;2022-11-25T06:56:10;101101.78;;;8.34;72.21
56400;BME280;42298;53.638;9.876;2022-11-25T06:58:36;101091.19;;;8.22;72.49
56400;BME280;42298;53.638;9.876;2022-11-25T07:01:16;101092.19;;;8.36;72.09
56400;BME280;42298;53.638;9.876;2022-11-25T07:03:43;101093.06;;;8.27;72.19
56400;BME280;42298;53.638;9.876;2022-11-25T07:06:10;101102.06;;;8.32;72.85
56400;BME280;42298;53.638;9.876;2022-11-25T07:08:36;101103.72;;;8.33;72.57
56400;BME280;42298;53.638;9.876;2022-11-25T07:11:12;101112.47;;;8.35;72.52
56400;BME280;42298;53.638;9.876;2022-11-25T07:13:39;101102.41;;;8.21;72.47
56400;BME280;42298;53.638;9.876;2022-11-25T07:16:05;101113.63;;;8.29;72.71
56400;BME280;42298;53.638;9.876;2022-11-25T07:18:33;101115.28;;;8.30;72.58
56400;BME280;42298;53.638;9.876;2022-11-25T07:21:07;101110.31;;;8.32;72.47
56400;BME280;42298;53.638;9.876;2022-11-25T07:23:34;101121.34;;;8.27;72.82
56400;BME280;42298;53.638;9.876;2022-11-25T07:26:14;101112.28;;;8.22;72.83
56400;BME280;42298;53.638;9.876;2022-11-25T07:28:41;101121.91;;;8.24;73.19
56400;BME280;42298;53.638;9.876;2022-11-25T07:31:18;101132.53;;;8.36;72.92
56400;BME280;42298;53.638;9.876;2022-11-25T07:33:46;101100.00;;;8.14;72.73
56400;BME280;42298;53.638;9.876;2022-11-25T07:36:13;101133.41;;;8.26;72.68
56400;BME280;42298;53.638;9.876;2022-11-25T07:38:39;101092.38;;;8.06;72.53
56400;BME280;42298;53.638;9.876;2022-11-25T07:41:10;101078.16;;;7.99;72.57
56400;BME280;42298;53.638;9.876;2022-11-25T07:43:37;101138.28;;;8.34;73.05
56400;BME280;42298;53.638;9.876;2022-11-25T07:46:16;101142.03;;;8.48;72.84
56400;BME280;42298;53.638;9.876;2022-11-25T07:48:43;101099.31;;;8.32;72.78
56400;BME280;42298;53.638;9.876;2022-11-25T07:51:25;101133.69;;;8.63;72.37
56400;BME280;42298;53.638;9.876;2022-11-25T07:53:53;101131.50;;;8.60;72.63
56400;BME280;42298;53.638;9.876;2022-11-25T07:56:19;101141.09;;;8.63;72.23
56400;BME280;42298;53.638;9.876;2022-11-25T07:58:46;101100.31;;;8.46;72.51
56400;BME280;42298;53.638;9.876;2022-11-25T08:01:13;101133.63;;;8.68;72.67
56400;BME280;42298;53.638;9.876;2022-11-25T08:03:40;101147.91;;;8.70;72.05
56400;BME280;42298;53.638;9.876;2022-11-25T08:06:08;101167.66;;;8.72;72.89
56400;BME280;42298;53.638;9.876;2022-11-25T08:08:35;101141.34;;;8.66;72.70
56400;BME280;42298;53.638;9.876;2022-11-25T08:11:06;101145.13;;;8.75;72.39
56400;BME280;42298;53.638;9.876;2022-11-25T08:13:32;101137.75;;;8.71;73.13
56400;BME280;42298;53.638;9.876;2022-11-25T08:15:58;101105.78;;;8.51;72.11
56400;BME280;42298;53.638;9.876;2022-11-25T08:18:24;101141.56;;;8.70;72.37
56400;BME280;42298;53.638;9.876;2022-11-25T08:20:50;101124.38;;;8.59;72.28
56400;BME280;42298;53.638;9.876;2022-11-25T08:23:15;101128.53;;;8.52;72.85
56400;BME280;42298;53.638;9.876;2022-11-25T08:25:41;101153.06;;;8.77;71.95
56400;BME280;42298;53.638;9.876;2022-11-25T08:28:07;101140.81;;;8.64;72.26
56400;BME280;42298;53.638;9.876;2022-11-25T08:30:32;101124.88;;;8.66;72.05
56400;BME280;42298;53.638;9.876;2022-11-25T08:32:57;101158.28;;;8.78;72.26
56400;BME280;42298;53.638;9.876;2022-11-25T08:35:24;101140.53;;;8.66;72.72
56400;BME280;42298;53.638;9.876;2022-11-25T08:44:10;101150.66;;;8.65;72.84
56400;BME280;42298;53.638;9.876;2022-11-25T08:46:37;101153.88;;;8.77;72.59
56400;BME280;42298;53.638;9.876;2022-11-25T08:49:05;101157.47;;;8.73;72.62
56400;BME280;42298;53.638;9.876;2022-11-25T08:51:32;101147.56;;;8.77;73.00
56400;BME280;42298;53.638;9.876;2022-11-25T08:53:58;101148.94;;;8.74;72.67
56400;BME280;42298;53.638;9.876;2022-11-25T08:56:24;101165.28;;;8.89;72.52
56400;BME280;42298;53.638;9.876;2022-11-25T08:58:50;101151.66;;;8.79;72.29
56400;BME280;42298;53.638;9.876;2022-11-25T09:01:17;101163.66;;;8.88;72.39
56400;BME280;42298;53.638;9.876;2022-11-25T09:03:46;101164.13;;;8.95;72.20
56400;BME280;42298;53.638;9.876;2022-11-25T09:06:14;101171.28;;;8.96;72.38
56400;BME280;42298;53.638;9.876;2022-11-25T09:08:41;101166.38;;;8.93;72.56
56400;BME280;42298;53.638;9.876;2022-11-25T09:11:08;101134.06;;;8.80;72.72
56400;BME280;42298;53.638;9.876;2022-11-25T09:13:33;101178.91;;;9.04;72.38
56400;BME280;42298;53.638;9.876;2022-11-25T09:15:59;101165.22;;;8.99;72.50
56400;BME280;42298;53.638;9.876;2022-11-25T09:18:26;101181.63;;;9.04;72.85
56400;BME280;42298;53.638;9.876;2022-11-25T09:20:55;101166.38;;;8.93;72.35
56400;BME280;42298;53.638;9.876;2022-11-25T09:23:20;101160.91;;;8.88;72.86
56400;BME280;42298;53.638;9.876;2022-11-25T09:25:54;101183.81;;;9.07;72.53
56400;BME280;42298;53.638;9.876;2022-11-25T09:28:21;101193.94;;;9.12;72.82
56400;BME280;42298;53.638;9.876;2022-11-25T09:30:47;101159.28;;;8.87;72.63
56400;BME280;42298;53.638;9.876;2022-11-25T09:33:16;101184.94;;;9.06;72.47
56400;BME280;42298;53.638;9.876;2022-11-25T09:35:42;101166.44;;;8.83;73.01
56400;BME280;42298;53.638;9.876;2022-11-25T09:38:07;101186.13;;;8.95;73.77
56400;BME280;42298;53.638;9.876;2022-11-25T09:43:17;101164.06;;;8.77;72.88
56400;BME280;42298;53.638;9.876;2022-11-25T09:46:34;101207.63;;;9.17;72.97
56400;BME280;42298;53.638;9.876;2022-11-25T09:54:36;101209.50;;;9.21;73.31
56400;BME280;42298;53.638;9.876;2022-11-25T09:57:17;101205.72;;;9.17;73.23
56400;BME280;42298;53.638;9.876;2022-11-25T10:02:56;101203.75;;;9.18;73.12
56400;BME280;42298;53.638;9.876;2022-11-25T10:05:58;101195.81;;;9.16;73.98
56400;BME280;42298;53.638;9.876;2022-11-25T10:08:29;101170.91;;;9.08;73.52
56400;BME280;42298;53.638;9.876;2022-11-25T10:11:02;101206.41;;;9.28;73.58
56400;BME280;42298;53.638;9.876;2022-11-25T10:16:21;101191.31;;;9.25;73.46
56400;BME280;42298;53.638;9.876;2022-11-25T10:18:59;101220.22;;;9.51;73.38
56400;BME280;42298;53.638;9.876;2022-11-25T10:21:25;101211.00;;;9.37;73.39
56400;BME280;42298;53.638;9.876;2022-11-25T10:23:52;101204.97;;;9.35;73.41
56400;BME280;42298;53.638;9.876;2022-11-25T10:26:21;101205.50;;;9.37;73.68
56400;BME280;42298;53.638;9.876;2022-11-25T10:28:54;101207.38;;;9.42;73.29
56400;BME280;42298;53.638;9.876;2022-11-25T10:31:28;101199.84;;;9.52;73.78
56400;BME280;42298;53.638;9.876;2022-11-25T10:34:00;101182.00;;;9.50;73.47
56400;BME280;42298;53.638;9.876;2022-11-25T10:36:35;101231.03;;;9.90;73.51
56400;BME280;42298;53.638;9.876;2022-11-25T10:39:08;101229.13;;;9.91;73.76
56400;BME280;42298;53.638;9.876;2022-11-25T10:44:25;101233.88;;;10.09;73.22
56400;BME280;42298;53.638;9.876;2022-11-25T10:46:58;101230.25;;;10.13;73.57
56400;BME280;42298;53.638;9.876;2022-11-25T10:49:32;101185.91;;;9.91;72.50
56400;BME280;42298;53.638;9.876;2022-11-25T10:52:00;101200.06;;;10.03;73.10
56400;BME280;42298;53.638;9.876;2022-11-25T10:54:27;101204.47;;;10.04;72.79
56400;BME280;42298;53.638;9.876;2022-11-25T10:57:03;101208.59;;;10.02;72.69
56400;BME280;42298;53.638;9.876;2022-11-25T10:59:40;101228.41;;;10.04;73.04
56400;BME280;42298;53.638;9.876;2022-11-25T11:02:36;101216.84;;;10.07;73.41
56400;BME280;42298;53.638;9.876;2022-11-25T11:05:15;101229.94;;;10.15;73.29
56400;BME280;42298;53.638;9.876;2022-11-25T11:07:44;101233.59;;;10.10;73.40
56400;BME280;42298;53.638;9.876;2022-11-25T11:10:21;101225.09;;;10.02;73.46
56400;BME280;42298;53.638;9.876;2022-11-25T11:15:43;101238.25;;;10.10;73.45
56400;BME280;42298;53.638;9.876;2022-11-25T11:21:00;101226.97;;;10.06;73.66
56400;BME280;42298;53.638;9.876;2022-11-25T11:23:27;101238.59;;;10.27;73.90
56400;BME280;42298;53.638;9.876;2022-11-25T11:31:07;101218.78;;;10.25;73.07
56400;BME280;42298;53.638;9.876;2022-11-25T11:33:56;101254.22;;;10.50;73.25
56400;BME280;42298;53.638;9.876;2022-11-25T11:39:24;101226.16;;;10.48;73.03
56400;BME280;42298;53.638;9.876;2022-11-25T11:42:09;101242.69;;;10.66;72.90
56400;BME280;42298;53.638;9.876;2022-11-25T11:55:37;101259.47;;;10.70;72.73
56400;BME280;42298;53.638;9.876;2022-11-25T11:58:37;101261.53;;;10.78;72.35
56400;BME280;42298;53.638;9.876;2022-11-25T12:06:28;101245.53;;;10.61;73.46
56400;BME280;42298;53.638;9.876;2022-11-25T12:09:19;101268.91;;;10.82;72.64
56400;BME280;42298;53.638;9.876;2022-11-25T12:11:51;101258.78;;;10.78;72.88
56400;BME280;42298;53.638;9.876;2022-11-25T12:14:43;101271.88;;;10.86;73.21
56400;BME280;42298;53.638;9.876;2022-11-25T12:17:16;101246.19;;;10.72;72.97
56400;BME280;42298;53.638;9.876;2022-11-25T12:20:04;101267.94;;;10.92;72.55
56400;BME280;42298;53.638;9.876;2022-11-25T12:22:35;101230.84;;;10.66;73.48
56400;BME280;42298;53.638;9.876;2022-11-25T12:25:16;101253.44;;;10.86;72.63
56400;BME280;42298;53.638;9.876;2022-11-25T12:27:48;101244.19;;;10.77;72.59
56400;BME280;42298;53.638;9.876;2022-11-25T12:31:17;101284.91;;;10.99;72.99
56400;BME280;42298;53.638;9.876;2022-11-25T12:33:26;101260.31;;;11.02;73.50
56400;BME280;42298;53.638;9.876;2022-11-25T12:36:17;101252.66;;;10.99;72.57
56400;BME280;42298;53.638;9.876;2022-11-25T12:41:49;101271.22;;;11.26;72.93
56400;BME280;42298;53.638;9.876;2022-11-25T12:44:25;101267.25;;;11.32;72.56
56400;BME280;42298;53.638;9.876;2022-11-25T12:46:53;101275.00;;;11.30;72.17
56400;BME280;42298;53.638;9.876;2022-11-25T12:49:28;101263.97;;;11.30;72.56
56400;BME280;42298;53.638;9.876;2022-11-25T13:13:51;101278.56;;;11.49;72.80
56400;BME280;42298;53.638;9.876;2022-11-25T13:16:21;101266.66;;;11.35;72.86
56400;BME280;42298;53.638;9.876;2022-11-25T13:18:48;101288.16;;;11.51;72.35
56400;BME280;42298;53.638;9.876;2022-11-25T13:21:15;101289.38;;;11.45;71.93
56400;BME280;42298;53.638;9.876;2022-11-25T13:23:46;101263.97;;;11.30;72.81
56400;BME280;42298;53.638;9.876;2022-11-25T13:28:58;101310.81;;;11.67;72.59
56400;BME280;42298;53.638;9.876;2022-11-25T13:31:33;101280.25;;;11.45;72.64
56400;BME280;42298;53.638;9.876;2022-11-25T13:34:23;101276.91;;;11.48;72.71
56400;BME280;42298;53.638;9.876;2022-11-25T13:36:51;101311.94;;;11.66;72.17
56400;BME280;42298;53.638;9.876;2022-11-25T13:39:31;101319.09;;;11.67;72.64
56400;BME280;42298;53.638;9.876;2022-11-25T13:42:12;101325.56;;;11.76;72.54
56400;BME280;42298;53.638;9.876;2022-11-25T13:44:51;101320.03;;;11.76;72.40
56400;BME280;42298;53.638;9.876;2022-11-25T13:47:39;101310.22;;;11.70;72.19
56400;BME280;42298;53.638;9.876;2022-11-25T13:50:17;101328.31;;;11.76;72.79
56400;BME280;42298;53.638;9.876;2022-11-25T13:53:04;101334.59;;;11.95;72.65
56400;BME280;42298;53.638;9.876;2022-11-25T13:55:36;101309.31;;;11.75;72.51
56400;BME280;42298;53.638;9.876;2022-11-25T13:58:23;101308.88;;;11.81;72.11
56400;BME280;42298;53.638;9.876;2022-11-25T14:01:00;101333.44;;;11.96;72.30
56400;BME280;42298;53.638;9.876;2022-11-25T14:14:41;101357.22;;;12.24;72.58
56400;BME280;42298;53.638;9.876;2022-11-25T14:25:50;101357.84;;;12.21;71.94
56400;BME280;42298;53.638;9.876;2022-11-25T14:28:21;101367.66;;;12.27;72.05
56400;BME280;42298;53.638;9.876;2022-11-25T14:30:51;101343.72;;;12.09;71.77
56400;BME280;42298;53.638;9.876;2022-11-25T14:33:21;101335.81;;;11.89;72.35
56400;BME280;42298;53.638;9.876;2022-11-25T14:35:54;101361.00;;;12.15;72.90
56400;BME280;42298;53.638;9.876;2022-11-25T14:38:30;101375.63;;;12.15;71.88
56400;BME280;42298;53.638;9.876;2022-11-25T14:41:07;101356.59;;;12.00;72.79
56400;BME280;42298;53.638;9.876;2022-11-25T14:43:57;101359.44;;;12.09;72.35
56400;BME280;42298;53.638;9.876;2022-11-25T14:46:23;101358.22;;;12.01;72.79
56400;BME280;42298;53.638;9.876;2022-11-25T14:48:58;101368.66;;;12.04;72.29
56400;BME280;42298;53.638;9.876;2022-11-25T14:51:26;101354.28;;;11.89;72.88
56400;BME280;42298;53.638;9.876;2022-11-25T14:53:53;101390.75;;;12.18;72.16
56400;BME280;42298;53.638;9.876;2022-11-25T14:56:25;101400.19;;;12.30;72.76
56400;BME280;42298;53.638;9.876;2022-11-25T14:58:53;101401.59;;;12.28;72.14